createdAt,value
2017-07-10T00:02:07.923Z,17.33
2017-07-10T00:04:35.493Z,16.73
2017-07-10T00:07:03.049Z,17.93
2017-07-10T00:09:30.625Z,19.13
2017-07-10T00:11:58.067Z,19.03
2017-07-10T00:14:26.758Z,19.37
2017-07-10T00:16:54.315Z,18.40
2017-07-10T00:19:22.369Z,17.53
2017-07-10T00:21:49.857Z,20.20
2017-07-10T00:24:17.404Z,19.10
2017-07-10T00:26:45.003Z,19.30
2017-07-10T00:29:12.876Z,18.90
2017-07-10T00:31:40.418Z,19.93
2017-07-10T00:34:08.009Z,17.63
2017-07-10T00:36:35.504Z,18.83
2017-07-10T00:39:07.511Z,16.00
2017-07-10T00:41:35.124Z,20.03
2017-07-10T00:44:02.580Z,19.03
2017-07-10T00:46:31.110Z,17.20
2017-07-10T00:48:58.600Z,21.67
2017-07-10T00:51:26.071Z,19.10
2017-07-10T00:53:53.555Z,19.30
2017-07-10T00:56:21.163Z,22.23
2017-07-10T00:58:48.655Z,18.70
2017-07-10T01:01:16.583Z,18.03
2017-07-10T01:03:44.118Z,17.87
2017-07-10T01:06:11.661Z,18.47
2017-07-10T01:08:39.142Z,20.00
2017-07-10T01:11:07.475Z,22.30
2017-07-10T01:13:35.232Z,18.50
2017-07-10T01:16:02.847Z,21.13
2017-07-10T01:18:34.569Z,20.00
2017-07-10T01:21:02.123Z,19.97
2017-07-10T01:23:29.630Z,22.03
2017-07-10T01:25:57.505Z,30.13
2017-07-10T01:28:25.064Z,21.53
2017-07-10T01:30:52.515Z,22.90
2017-07-10T01:33:19.965Z,20.67
2017-07-10T01:35:47.465Z,21.27
2017-07-10T01:38:16.676Z,21.63
2017-07-10T01:40:44.248Z,24.17
2017-07-10T01:43:11.749Z,21.23
2017-07-10T01:45:39.408Z,29.83
2017-07-10T01:48:06.903Z,23.63
2017-07-10T01:50:34.462Z,22.60
2017-07-10T01:53:01.919Z,25.63
2017-07-10T01:55:30.240Z,22.93
2017-07-10T01:57:58.491Z,21.07
2017-07-10T02:00:25.940Z,25.50
2017-07-10T02:02:53.415Z,20.87
2017-07-10T02:05:20.911Z,22.70
2017-07-10T02:07:49.051Z,22.80
2017-07-10T02:10:17.202Z,23.37
2017-07-10T02:12:44.977Z,25.30
2017-07-10T02:15:12.492Z,21.07
2017-07-10T02:17:39.960Z,22.00
2017-07-10T02:20:08.708Z,24.33
2017-07-10T02:22:36.239Z,19.80
2017-07-10T02:25:04.463Z,21.37
2017-07-10T02:27:32.234Z,23.17
2017-07-10T02:29:59.744Z,22.00
2017-07-10T02:32:27.220Z,23.00
2017-07-10T02:34:55.716Z,25.50
2017-07-10T02:37:23.223Z,23.47
2017-07-10T02:39:50.680Z,22.50
2017-07-10T02:42:18.191Z,22.70
2017-07-10T02:44:46.431Z,23.50
2017-07-10T02:47:14.075Z,24.20
2017-07-10T02:49:41.630Z,23.43
2017-07-10T02:52:09.723Z,24.80
2017-07-10T02:54:37.192Z,24.70
2017-07-10T02:57:04.831Z,23.13
2017-07-10T02:59:33.152Z,24.20
2017-07-10T03:02:01.369Z,23.30
2017-07-10T03:04:28.836Z,23.80
2017-07-10T03:06:56.375Z,28.50
2017-07-10T03:09:24.308Z,26.23
2017-07-10T03:11:51.772Z,24.80
2017-07-10T03:14:19.292Z,25.93
2017-07-10T03:16:46.812Z,21.70
2017-07-10T03:19:14.296Z,23.10
2017-07-10T03:21:42.524Z,23.37
2017-07-10T03:24:10.044Z,25.73
2017-07-10T03:26:37.599Z,23.33
2017-07-10T03:29:05.060Z,23.80
2017-07-10T03:31:32.620Z,22.57
2017-07-10T03:34:00.256Z,20.77
2017-07-10T03:36:28.532Z,21.43
2017-07-10T03:38:56.008Z,22.07
2017-07-10T03:41:23.528Z,21.50
2017-07-10T03:43:51.845Z,25.33
2017-07-10T03:46:19.355Z,21.90
2017-07-10T03:48:46.832Z,24.80
2017-07-10T03:51:14.317Z,22.63
2017-07-10T03:53:41.811Z,22.60
2017-07-10T03:56:09.268Z,23.70
2017-07-10T03:58:37.921Z,23.30
2017-07-10T04:01:05.826Z,24.17
2017-07-10T04:03:33.464Z,26.77
2017-07-10T04:06:00.960Z,25.13
2017-07-10T04:08:28.428Z,25.67
2017-07-10T04:10:56.044Z,26.60
2017-07-10T04:13:23.674Z,27.30
2017-07-10T04:15:58.443Z,26.93
2017-07-10T04:18:25.982Z,26.40
2017-07-10T04:21:02.286Z,28.00
2017-07-10T04:23:37.243Z,30.67
2017-07-10T04:26:08.200Z,26.20
2017-07-10T04:28:38.263Z,29.47
2017-07-10T04:31:05.899Z,27.40
2017-07-10T04:33:35.412Z,28.27
2017-07-10T04:36:04.269Z,29.10
2017-07-10T04:38:33.560Z,30.60
2017-07-10T04:41:01.933Z,31.33
2017-07-10T04:43:31.445Z,34.97
2017-07-10T04:46:00.473Z,32.13
2017-07-10T04:48:30.164Z,32.43
2017-07-10T04:50:59.455Z,32.53
2017-07-10T04:53:33.968Z,31.70
2017-07-10T04:56:02.419Z,41.43
2017-07-10T04:58:31.094Z,32.27
2017-07-10T05:01:05.425Z,32.03
2017-07-10T05:03:34.098Z,30.90
2017-07-10T05:06:01.798Z,33.70
2017-07-10T05:08:29.276Z,33.00
2017-07-10T05:10:56.833Z,40.63
2017-07-10T05:13:25.300Z,36.87
2017-07-10T05:15:53.435Z,38.73
2017-07-10T05:18:20.900Z,42.60
2017-07-10T05:23:22.563Z,37.17
2017-07-10T05:25:50.239Z,48.43
2017-07-10T05:28:17.785Z,40.33
2017-07-10T05:30:45.426Z,44.57
2017-07-10T05:33:16.776Z,44.67
2017-07-10T05:35:44.703Z,46.20
2017-07-10T05:38:17.426Z,43.57
2017-07-10T05:40:46.202Z,41.53
2017-07-10T05:43:13.740Z,46.17
2017-07-10T05:45:42.195Z,42.20
2017-07-10T05:48:11.684Z,51.23
2017-07-10T05:50:39.458Z,48.07
2017-07-10T05:53:07.007Z,50.87
2017-07-10T05:55:35.630Z,50.97
2017-07-10T05:58:03.150Z,53.43
2017-07-10T06:00:30.968Z,41.10
2017-07-10T06:05:41.022Z,46.23
2017-07-10T06:08:08.668Z,38.23
2017-07-10T06:10:37.136Z,38.23
2017-07-10T06:13:04.690Z,37.73
2017-07-10T06:15:32.811Z,34.70
2017-07-10T06:18:01.211Z,30.80
2017-07-10T06:20:29.045Z,37.47
2017-07-10T06:22:56.595Z,39.07
2017-07-10T06:25:24.332Z,35.40
2017-07-10T06:27:51.931Z,34.30
2017-07-10T06:30:20.543Z,35.57
2017-07-10T06:32:48.426Z,31.60
2017-07-10T06:35:17.905Z,30.47
2017-07-10T06:37:47.060Z,36.63
2017-07-10T06:40:16.303Z,31.93
2017-07-10T06:42:44.271Z,33.10
2017-07-10T06:45:15.693Z,35.67
2017-07-10T06:47:47.573Z,43.90
2017-07-10T06:50:15.066Z,44.67
2017-07-10T06:52:43.799Z,44.90
2017-07-10T06:55:11.537Z,44.20
2017-07-10T06:57:41.146Z,48.03
2017-07-10T07:00:15.018Z,40.13
2017-07-10T07:05:18.674Z,44.50
2017-07-10T07:07:46.232Z,42.80
2017-07-10T07:10:13.906Z,47.37
2017-07-10T07:12:44.572Z,47.43
2017-07-10T07:15:13.067Z,42.80
2017-07-10T07:17:41.489Z,43.83
2017-07-10T07:20:10.195Z,67.17
2017-07-10T07:22:41.726Z,41.47
2017-07-10T07:25:10.691Z,45.07
2017-07-10T07:27:40.128Z,46.97
2017-07-10T07:30:07.722Z,43.20
2017-07-10T07:32:36.175Z,44.27
2017-07-10T07:35:07.497Z,55.83
2017-07-10T07:37:37.265Z,46.13
2017-07-10T07:40:05.208Z,39.53
2017-07-10T07:42:36.881Z,39.90
2017-07-10T07:45:06.339Z,40.20
2017-07-10T07:47:36.189Z,37.97
2017-07-10T07:50:04.909Z,33.90
2017-07-10T07:52:33.294Z,36.57
2017-07-10T07:55:02.346Z,34.07
2017-07-10T07:57:29.910Z,33.97
2017-07-10T07:59:57.514Z,35.53
2017-07-10T08:02:26.463Z,35.03
2017-07-10T08:04:59.466Z,28.83
2017-07-10T08:07:28.748Z,30.97
2017-07-10T08:09:59.980Z,30.70
2017-07-10T08:12:33.382Z,36.17
2017-07-10T08:15:02.902Z,34.13
2017-07-10T08:17:37.834Z,33.37
2017-07-10T08:20:06.607Z,30.00
2017-07-10T08:34:11.468Z,26.27
2017-07-10T08:36:41.886Z,31.07
2017-07-10T08:39:09.582Z,28.20
2017-07-10T08:41:39.623Z,25.40
2017-07-10T08:44:10.917Z,27.33
2017-07-10T08:46:39.575Z,31.70
2017-07-10T08:49:07.103Z,26.13
2017-07-10T08:51:35.631Z,24.40
2017-07-10T08:54:03.539Z,24.50
2017-07-10T08:56:33.452Z,28.80
2017-07-10T08:59:11.877Z,37.23
2017-07-10T09:04:25.426Z,25.80
2017-07-10T09:06:58.240Z,24.37
2017-07-10T09:09:30.611Z,27.80
2017-07-10T09:11:59.663Z,26.00
2017-07-10T09:14:30.238Z,25.87
2017-07-10T09:17:06.702Z,24.80
2017-07-10T09:19:42.220Z,24.97
2017-07-10T09:22:16.217Z,25.93
2017-07-10T09:24:48.431Z,23.03
2017-07-10T09:27:17.731Z,25.10
2017-07-10T09:30:02.095Z,25.63
2017-07-10T09:32:30.275Z,27.70
2017-07-10T09:34:59.971Z,28.27
2017-07-10T09:37:28.477Z,24.90
2017-07-10T09:39:58.899Z,26.10
2017-07-10T09:42:28.040Z,24.50
2017-07-10T09:44:56.830Z,25.80
2017-07-10T09:47:34.554Z,31.27
2017-07-10T09:50:10.867Z,33.03
2017-07-10T09:52:43.287Z,28.67
2017-07-10T09:55:17.722Z,28.30
2017-07-10T09:57:45.597Z,29.90
2017-07-10T10:00:13.184Z,26.83
2017-07-10T10:02:48.253Z,27.57
2017-07-10T10:05:19.038Z,28.20
2017-07-10T10:07:48.474Z,27.00
2017-07-10T10:10:17.373Z,30.70
2017-07-10T10:12:48.028Z,31.20
2017-07-10T10:15:17.750Z,39.80
2017-07-10T10:17:46.513Z,37.20
2017-07-10T10:20:22.011Z,35.43
2017-07-10T10:22:53.825Z,38.20
2017-07-10T10:25:25.154Z,38.60
2017-07-10T10:27:56.006Z,38.57
2017-07-10T10:30:33.594Z,42.23
2017-07-10T10:33:03.287Z,39.50
2017-07-10T10:35:31.197Z,37.73
2017-07-10T10:38:02.053Z,41.67
2017-07-10T10:40:32.060Z,40.93
2017-07-10T10:42:59.982Z,42.13
2017-07-10T10:45:29.613Z,40.20
2017-07-10T11:13:02.676Z,42.27
2017-07-10T11:18:06.911Z,42.53
2017-07-10T11:20:41.750Z,40.80
2017-07-10T11:23:10.277Z,39.07
2017-07-10T11:25:40.391Z,49.40
2017-07-10T11:28:22.185Z,39.40
2017-07-10T11:30:50.613Z,42.43
2017-07-10T11:33:21.723Z,37.57
2017-07-10T11:35:57.385Z,42.37
2017-07-10T11:38:31.294Z,40.50
2017-07-10T11:41:11.976Z,41.07
2017-07-10T11:43:39.581Z,38.90
2017-07-10T11:46:08.305Z,40.97
2017-07-10T11:48:53.673Z,43.13
2017-07-10T11:51:26.125Z,41.70
2017-07-10T11:54:03.971Z,42.87
2017-07-10T11:56:31.552Z,41.43
2017-07-10T11:58:59.185Z,38.40
2017-07-10T12:01:32.437Z,38.50
2017-07-10T12:04:02.915Z,38.10
2017-07-10T12:06:34.241Z,36.60
2017-07-10T12:09:06.008Z,33.40
2017-07-10T12:11:34.413Z,34.50
2017-07-10T12:14:02.984Z,35.23
2017-07-10T12:16:34.469Z,34.90
2017-07-10T12:19:04.571Z,30.53
2017-07-10T12:21:33.507Z,26.10
2017-07-10T12:24:02.977Z,31.30
2017-07-10T12:26:31.352Z,25.93
2017-07-10T12:28:59.149Z,26.43
2017-07-10T12:31:29.579Z,28.03
2017-07-10T12:33:58.385Z,25.50
2017-07-10T12:36:27.327Z,18.57
2017-07-10T12:38:58.143Z,22.10
2017-07-10T12:41:28.222Z,16.23
2017-07-10T12:43:55.802Z,13.80
2017-07-10T12:46:23.598Z,11.63
2017-07-10T12:48:53.311Z,13.33
2017-07-10T12:51:22.857Z,11.93
2017-07-10T12:54:06.861Z,10.50
2017-07-10T12:56:34.494Z,14.37
2017-07-10T12:59:02.956Z,13.50
2017-07-10T13:01:31.333Z,14.20
2017-07-10T13:03:58.962Z,17.43
2017-07-10T13:06:28.301Z,19.80
2017-07-10T13:08:56.751Z,20.83
2017-07-10T13:11:42.958Z,17.00
2017-07-10T13:14:14.613Z,18.53
2017-07-10T13:17:00.252Z,15.87
2017-07-10T13:19:43.486Z,18.97
2017-07-10T13:22:16.630Z,19.10
2017-07-10T13:25:06.055Z,19.13
2017-07-10T13:30:11.983Z,22.40
2017-07-10T13:38:40.090Z,25.40
2017-07-10T13:41:16.310Z,28.90
2017-07-10T13:43:55.038Z,26.70
2017-07-10T13:46:47.479Z,28.47
2017-07-10T13:49:15.219Z,32.07
2017-07-10T13:51:46.975Z,28.37
2017-07-10T13:54:19.006Z,27.00
2017-07-10T13:56:56.397Z,26.17
2017-07-10T13:59:31.743Z,24.50
2017-07-10T14:02:05.461Z,20.20
2017-07-10T14:04:38.068Z,19.93
2017-07-10T14:07:07.673Z,19.17
2017-07-10T14:15:56.333Z,12.43
2017-07-10T14:18:24.661Z,11.80
2017-07-10T14:20:54.125Z,11.67
2017-07-10T14:23:21.769Z,11.43
2017-07-10T14:25:50.197Z,12.03
2017-07-10T14:28:17.826Z,8.50
2017-07-10T14:30:51.019Z,8.30
2017-07-10T14:33:18.765Z,8.43
2017-07-10T14:38:28.956Z,8.10
2017-07-10T14:41:00.501Z,9.00
2017-07-10T14:43:29.119Z,7.90
2017-07-10T14:45:59.539Z,8.60
2017-07-10T14:48:30.464Z,8.33
2017-07-10T14:50:59.592Z,10.23
2017-07-10T14:53:33.431Z,10.93
2017-07-10T14:56:03.968Z,10.03
2017-07-10T15:01:07.773Z,12.13
2017-07-10T15:03:37.692Z,11.93
2017-07-10T15:06:06.207Z,11.97
2017-07-10T15:08:36.716Z,11.63
2017-07-10T15:11:04.399Z,11.67
2017-07-10T15:13:41.442Z,8.57
2017-07-10T15:16:10.807Z,9.50
2017-07-10T15:22:14.176Z,12.53
2017-07-10T15:24:45.157Z,11.00
2017-07-10T15:27:20.482Z,11.10
2017-07-10T15:29:49.918Z,14.80
2017-07-10T15:32:25.575Z,11.10
2017-07-10T15:34:54.560Z,11.73
2017-07-10T15:37:42.586Z,10.50
2017-07-10T15:40:10.515Z,14.50
2017-07-10T15:42:41.699Z,13.27
2017-07-10T15:45:10.388Z,14.33
2017-07-10T16:01:32.330Z,20.23
2017-07-10T16:04:02.450Z,15.73
2017-07-10T16:06:30.087Z,16.80
2017-07-10T16:08:59.417Z,12.50
2017-07-10T16:11:29.209Z,14.27
2017-07-10T16:14:00.649Z,15.17
2017-07-10T16:16:30.118Z,13.33
2017-07-10T16:18:59.092Z,15.80
2017-07-10T16:21:26.814Z,13.80
2017-07-10T16:23:54.389Z,12.20
2017-07-10T16:26:26.956Z,20.10
2017-07-10T16:28:56.151Z,14.40
2017-07-10T16:31:24.812Z,14.77
2017-07-10T16:33:53.287Z,14.77
2017-07-10T16:36:28.052Z,15.80
2017-07-10T16:38:59.287Z,15.80
2017-07-10T16:41:27.077Z,17.80
2017-07-10T16:43:55.173Z,16.17
2017-07-10T16:46:24.999Z,15.43
2017-07-10T16:48:58.628Z,15.40
2017-07-10T16:51:34.300Z,15.30
2017-07-10T16:54:15.506Z,16.10
2017-07-10T16:57:34.873Z,27.53
2017-07-10T17:00:04.261Z,21.60
2017-07-10T17:02:36.319Z,22.33
2017-07-10T17:05:07.472Z,25.73
2017-07-10T17:07:43.123Z,30.13
2017-07-10T17:10:15.686Z,29.70
2017-07-10T17:12:50.783Z,34.53
2017-07-10T17:15:29.922Z,37.40
2017-07-10T17:17:58.697Z,31.30
2017-07-10T17:20:26.253Z,33.40
2017-07-10T17:22:54.545Z,31.17
2017-07-10T17:25:25.546Z,36.77
2017-07-10T17:27:54.917Z,30.30
2017-07-10T17:30:22.615Z,33.43
2017-07-10T17:32:50.349Z,44.50
2017-07-10T17:35:18.048Z,40.50
2017-07-10T17:37:46.739Z,42.77
2017-07-10T17:40:16.319Z,36.93
2017-07-10T17:42:47.764Z,47.47
2017-07-10T17:45:17.128Z,52.43
2017-07-10T17:47:49.978Z,28.77
2017-07-10T17:50:17.857Z,30.70
2017-07-10T17:52:45.369Z,32.00
2017-07-10T17:55:12.913Z,33.10
2017-07-10T17:57:41.454Z,35.90
2017-07-10T18:00:11.375Z,40.17
2017-07-10T18:02:39.277Z,40.10
2017-07-10T18:05:06.857Z,44.77
2017-07-10T18:07:36.571Z,44.30
2017-07-10T18:10:08.885Z,47.83
2017-07-10T18:12:37.470Z,53.93
2017-07-10T18:15:12.872Z,51.30
2017-07-10T18:17:48.173Z,45.10
2017-07-10T18:20:19.606Z,51.43
2017-07-10T18:22:48.773Z,67.83
2017-07-10T18:25:17.161Z,37.80
2017-07-10T18:30:33.186Z,65.47
2017-07-10T18:33:02.565Z,57.93
2017-07-10T18:35:39.635Z,59.20
2017-07-10T18:40:45.426Z,44.93
2017-07-10T18:43:18.729Z,32.70
2017-07-10T18:45:47.199Z,43.77
2017-07-10T18:48:15.927Z,39.93
2017-07-10T18:50:45.137Z,38.80
2017-07-10T18:55:57.460Z,32.07
2017-07-10T19:00:59.983Z,29.07
2017-07-10T19:03:31.345Z,30.60
2017-07-10T19:05:58.906Z,30.60
2017-07-10T19:11:04.257Z,34.33
2017-07-10T19:13:33.260Z,33.90
2017-07-10T19:16:02.242Z,30.73
2017-07-10T19:18:41.713Z,31.73
2017-07-10T19:21:10.559Z,30.37
2017-07-10T19:23:52.577Z,33.80
2017-07-10T19:26:33.241Z,34.93
2017-07-10T19:29:12.171Z,33.60
2017-07-10T19:32:00.017Z,31.63
2017-07-10T19:34:30.905Z,32.27
2017-07-10T19:37:03.985Z,31.53
2017-07-10T19:39:39.977Z,28.87
2017-07-10T19:45:02.779Z,24.20
2017-07-10T19:47:38.652Z,25.53
2017-07-10T19:50:10.258Z,28.27
2017-07-10T19:52:39.044Z,30.97
2017-07-10T19:55:07.099Z,31.40
2017-07-10T19:57:44.572Z,34.23
2017-07-10T20:00:15.165Z,29.53
2017-07-10T20:02:50.044Z,22.27
2017-07-10T20:05:17.547Z,25.20
2017-07-10T20:07:46.884Z,23.20
2017-07-10T20:10:15.755Z,22.53
2017-07-10T20:12:45.072Z,22.40
2017-07-10T20:15:20.334Z,19.20
2017-07-10T20:17:49.166Z,19.27
2017-07-10T20:20:16.927Z,17.30
2017-07-10T20:23:00.291Z,14.23
2017-07-10T20:25:29.291Z,14.17
2017-07-10T20:33:44.603Z,13.13
2017-07-10T20:36:24.194Z,15.43
2017-07-10T20:38:54.851Z,14.03
2017-07-10T20:41:22.669Z,14.33
2017-07-10T20:43:51.472Z,14.77
2017-07-10T20:46:23.084Z,23.43
2017-07-10T20:48:53.893Z,21.23
2017-07-10T20:51:21.397Z,18.67
2017-07-10T20:53:49.818Z,19.57
2017-07-10T20:56:17.518Z,16.43
2017-07-10T20:58:45.213Z,15.70
2017-07-10T21:01:12.812Z,15.80
2017-07-10T21:03:42.174Z,19.90
2017-07-10T21:06:11.182Z,18.63
2017-07-10T21:08:39.095Z,18.50
2017-07-10T21:11:07.257Z,24.80
2017-07-10T21:13:43.571Z,17.93
2017-07-10T21:19:07.700Z,15.07
2017-07-10T21:21:38.512Z,16.50
2017-07-10T21:24:08.627Z,16.00
2017-07-10T21:26:40.237Z,15.33
2017-07-10T21:29:12.087Z,13.10
2017-07-10T21:31:41.739Z,12.30
2017-07-10T21:37:12.267Z,14.13
2017-07-10T21:39:46.247Z,16.47
2017-07-10T21:42:15.384Z,15.60
2017-07-10T21:44:43.233Z,15.70
2017-07-10T21:47:11.693Z,17.53
2017-07-10T21:49:42.865Z,13.67
2017-07-10T21:52:20.756Z,15.87
2017-07-10T22:00:49.691Z,15.53
2017-07-10T22:03:22.362Z,16.40
2017-07-10T22:05:53.599Z,16.50
2017-07-10T22:08:22.900Z,14.80
2017-07-10T22:10:53.350Z,16.67
2017-07-10T22:13:22.700Z,14.83
2017-07-10T22:15:53.533Z,16.57
2017-07-10T22:18:21.557Z,12.70
2017-07-10T22:20:50.137Z,11.10
2017-07-10T22:23:18.495Z,10.17
2017-07-10T22:28:32.800Z,12.10
2017-07-10T22:31:00.297Z,10.43
2017-07-10T22:33:42.737Z,11.53
2017-07-10T22:36:10.903Z,9.93
2017-07-10T22:38:39.301Z,12.47
2017-07-10T22:41:06.828Z,9.10
2017-07-10T22:43:40.983Z,11.03
2017-07-10T22:46:08.573Z,11.63
2017-07-10T22:48:36.299Z,11.17
2017-07-10T22:51:04.367Z,9.00
2017-07-10T22:53:31.904Z,7.90
2017-07-10T22:55:59.370Z,7.50
2017-07-10T22:58:26.852Z,9.10
2017-07-10T23:00:54.518Z,8.00
2017-07-10T23:03:21.989Z,6.90
2017-07-10T23:05:49.559Z,8.13
2017-07-10T23:08:17.222Z,7.53
2017-07-10T23:10:45.518Z,6.40
2017-07-10T23:13:13.019Z,7.00
2017-07-10T23:15:40.528Z,6.90
2017-07-10T23:18:08.268Z,6.40
2017-07-10T23:20:35.841Z,7.70
2017-07-10T23:23:03.368Z,7.33
2017-07-10T23:25:30.812Z,7.17
2017-07-10T23:27:58.573Z,9.20
2017-07-10T23:30:26.093Z,7.57
2017-07-10T23:32:53.599Z,7.43
2017-07-10T23:35:21.352Z,7.73
2017-07-10T23:37:50.544Z,7.47
2017-07-10T23:40:17.999Z,7.70
2017-07-10T23:42:45.619Z,8.73
2017-07-10T23:45:13.293Z,9.67
2017-07-10T23:47:40.775Z,9.13
2017-07-10T23:50:08.252Z,10.80
2017-07-10T23:52:35.726Z,11.00
2017-07-10T23:55:03.186Z,8.60
2017-07-10T23:57:31.325Z,9.97
2017-07-10T23:59:59.399Z,10.00
